sensor_id;sensor_type;location;lat;lon;timestamp;temperature;humidity
52963;DHT22;38827;53.024;6.596;2023-12-20T00:01:59;6.20;93.10
52963;DHT22;38827;53.024;6.596;2023-12-20T00:04:37;6.10;93.00
52963;DHT22;38827;53.024;6.596;2023-12-20T00:07:02;6.10;93.00
52963;DHT22;38827;53.024;6.596;2023-12-20T00:09:31;6.10;93.00
52963;DHT22;38827;53.024;6.596;2023-12-20T00:11:57;6.20;92.90
52963;DHT22;38827;53.024;6.596;2023-12-20T00:14:25;6.20;92.70
52963;DHT22;38827;53.024;6.596;2023-12-20T00:16:54;6.20;92.60
52963;DHT22;38827;53.024;6.596;2023-12-20T00:19:35;6.10;92.60
52963;DHT22;38827;53.024;6.596;2023-12-20T00:22:01;6.10;92.50
52963;DHT22;38827;53.024;6.596;2023-12-20T00:25:00;6.10;92.70
52963;DHT22;38827;53.024;6.596;2023-12-20T00:27:35;6.10;92.70
52963;DHT22;38827;53.024;6.596;2023-12-20T00:30:10;6.10;92.80
52963;DHT22;38827;53.024;6.596;2023-12-20T00:32:51;6.10;92.70
52963;DHT22;38827;53.024;6.596;2023-12-20T00:35:35;6.00;92.80
52963;DHT22;38827;53.024;6.596;2023-12-20T00:38:01;6.10;93.00
52963;DHT22;38827;53.024;6.596;2023-12-20T00:40:27;6.10;93.10
52963;DHT22;38827;53.024;6.596;2023-12-20T00:42:53;6.10;93.30
52963;DHT22;38827;53.024;6.596;2023-12-20T00:45:30;6.20;93.30
52963;DHT22;38827;53.024;6.596;2023-12-20T00:48:18;6.20;93.20
52963;DHT22;38827;53.024;6.596;2023-12-20T00:50:56;6.20;92.90
52963;DHT22;38827;53.024;6.596;2023-12-20T00:53:25;6.30;93.10
52963;DHT22;38827;53.024;6.596;2023-12-20T01:46:54;6.00;92.90
52963;DHT22;38827;53.024;6.596;2023-12-20T01:49:32;6.00;92.60
52963;DHT22;38827;53.024;6.596;2023-12-20T01:51:57;6.00;92.70
52963;DHT22;38827;53.024;6.596;2023-12-20T01:54:26;6.00;92.50
52963;DHT22;38827;53.024;6.596;2023-12-20T02:00:36;6.10;92.10
52963;DHT22;38827;53.024;6.596;2023-12-20T02:03:11;6.10;92.00
52963;DHT22;38827;53.024;6.596;2023-12-20T02:05:56;6.10;91.80
52963;DHT22;38827;53.024;6.596;2023-12-20T02:08:28;6.00;91.80
52963;DHT22;38827;53.024;6.596;2023-12-20T02:11:08;6.00;91.80
52963;DHT22;38827;53.024;6.596;2023-12-20T02:13:37;6.00;91.70
52963;DHT22;38827;53.024;6.596;2023-12-20T02:16:03;6.00;91.90
52963;DHT22;38827;53.024;6.596;2023-12-20T02:18:28;6.00;92.00
52963;DHT22;38827;53.024;6.596;2023-12-20T02:21:00;6.00;92.10
52963;DHT22;38827;53.024;6.596;2023-12-20T02:23:38;6.10;92.20
52963;DHT22;38827;53.024;6.596;2023-12-20T02:26:15;6.10;92.10
52963;DHT22;38827;53.024;6.596;2023-12-20T02:29:15;6.10;92.20
52963;DHT22;38827;53.024;6.596;2023-12-20T02:31:58;6.10;92.00
52963;DHT22;38827;53.024;6.596;2023-12-20T02:34:36;6.10;92.20
52963;DHT22;38827;53.024;6.596;2023-12-20T02:37:04;6.10;92.20
52963;DHT22;38827;53.024;6.596;2023-12-20T02:39:30;6.10;92.30
52963;DHT22;38827;53.024;6.596;2023-12-20T02:42:31;6.20;92.20
52963;DHT22;38827;53.024;6.596;2023-12-20T02:44:59;6.20;92.10
52963;DHT22;38827;53.024;6.596;2023-12-20T02:50:19;6.30;91.90
52963;DHT22;38827;53.024;6.596;2023-12-20T02:52:54;6.30;91.70
52963;DHT22;38827;53.024;6.596;2023-12-20T02:55:35;6.30;91.60
52963;DHT22;38827;53.024;6.596;2023-12-20T02:58:16;6.30;91.60
52963;DHT22;38827;53.024;6.596;2023-12-20T03:00:55;6.30;91.50
52963;DHT22;38827;53.024;6.596;2023-12-20T03:03:21;6.30;91.30
52963;DHT22;38827;53.024;6.596;2023-12-20T03:06:24;6.30;91.20
52963;DHT22;38827;53.024;6.596;2023-12-20T03:08:59;6.40;90.90
52963;DHT22;38827;53.024;6.596;2023-12-20T03:11:28;6.40;90.90
52963;DHT22;38827;53.024;6.596;2023-12-20T03:14:24;6.40;91.00
52963;DHT22;38827;53.024;6.596;2023-12-20T03:25:44;6.30;91.10
52963;DHT22;38827;53.024;6.596;2023-12-20T03:28:19;6.30;91.30
52963;DHT22;38827;53.024;6.596;2023-12-20T03:31:03;6.30;91.30
52963;DHT22;38827;53.024;6.596;2023-12-20T03:37:02;6.30;91.50
52963;DHT22;38827;53.024;6.596;2023-12-20T03:39:34;6.30;91.60
52963;DHT22;38827;53.024;6.596;2023-12-20T03:42:03;6.30;91.50
52963;DHT22;38827;53.024;6.596;2023-12-20T03:44:44;6.30;91.30
52963;DHT22;38827;53.024;6.596;2023-12-20T03:47:09;6.30;91.10
52963;DHT22;38827;53.024;6.596;2023-12-20T03:49:59;6.30;91.10
52963;DHT22;38827;53.024;6.596;2023-12-20T03:56:25;6.30;91.00
52963;DHT22;38827;53.024;6.596;2023-12-20T04:24:10;6.70;89.80
52963;DHT22;38827;53.024;6.596;2023-12-20T04:26:54;6.70;89.60
52963;DHT22;38827;53.024;6.596;2023-12-20T04:29:51;6.70;89.50
52963;DHT22;38827;53.024;6.596;2023-12-20T04:32:35;6.80;89.50
52963;DHT22;38827;53.024;6.596;2023-12-20T04:35:01;6.80;89.30
52963;DHT22;38827;53.024;6.596;2023-12-20T04:41:15;6.80;89.10
52963;DHT22;38827;53.024;6.596;2023-12-20T04:44:10;6.80;89.20
52963;DHT22;38827;53.024;6.596;2023-12-20T04:46:39;6.80;89.00
52963;DHT22;38827;53.024;6.596;2023-12-20T04:52:54;6.90;88.90
52963;DHT22;38827;53.024;6.596;2023-12-20T04:55:49;6.90;88.80
52963;DHT22;38827;53.024;6.596;2023-12-20T05:13:22;7.00;88.30
52963;DHT22;38827;53.024;6.596;2023-12-20T05:15:54;7.10;87.90
52963;DHT22;38827;53.024;6.596;2023-12-20T05:18:45;7.10;88.20
52963;DHT22;38827;53.024;6.596;2023-12-20T05:21:42;7.10;88.20
52963;DHT22;38827;53.024;6.596;2023-12-20T05:24:39;7.10;87.90
52963;DHT22;38827;53.024;6.596;2023-12-20T05:30:03;7.20;87.60
52963;DHT22;38827;53.024;6.596;2023-12-20T05:32:48;7.20;87.60
52963;DHT22;38827;53.024;6.596;2023-12-20T05:38:26;7.20;87.40
52963;DHT22;38827;53.024;6.596;2023-12-20T05:40:58;7.20;87.10
52963;DHT22;38827;53.024;6.596;2023-12-20T05:43:56;7.20;87.30
52963;DHT22;38827;53.024;6.596;2023-12-20T05:46:42;7.30;86.80
52963;DHT22;38827;53.024;6.596;2023-12-20T06:57:48;7.40;87.60
52963;DHT22;38827;53.024;6.596;2023-12-20T07:01:47;7.40;87.60
52963;DHT22;38827;53.024;6.596;2023-12-20T07:17:15;7.50;87.10
52963;DHT22;38827;53.024;6.596;2023-12-20T07:19:47;7.60;86.80
52963;DHT22;38827;53.024;6.596;2023-12-20T07:22:37;7.60;86.90
52963;DHT22;38827;53.024;6.596;2023-12-20T07:25:07;7.60;86.70
52963;DHT22;38827;53.024;6.596;2023-12-20T07:32:43;7.60;86.50
52963;DHT22;38827;53.024;6.596;2023-12-20T07:35:49;7.60;86.50
52963;DHT22;38827;53.024;6.596;2023-12-20T07:42:20;7.70;86.20
52963;DHT22;38827;53.024;6.596;2023-12-20T07:44:59;7.70;86.00
52963;DHT22;38827;53.024;6.596;2023-12-20T07:55:30;7.80;85.90
52963;DHT22;38827;53.024;6.596;2023-12-20T08:05:04;7.80;85.50
52963;DHT22;38827;53.024;6.596;2023-12-20T08:10:18;7.80;85.70
52963;DHT22;38827;53.024;6.596;2023-12-20T08:16:45;7.90;84.90
52963;DHT22;38827;53.024;6.596;2023-12-20T08:19:17;7.90;84.60
52963;DHT22;38827;53.024;6.596;2023-12-20T08:36:12;8.00;83.60
52963;DHT22;38827;53.024;6.596;2023-12-20T08:43:47;8.00;82.30
52963;DHT22;38827;53.024;6.596;2023-12-20T08:46:14;7.80;83.20
52963;DHT22;38827;53.024;6.596;2023-12-20T08:51:57;7.60;84.20
52963;DHT22;38827;53.024;6.596;2023-12-20T08:54:35;7.50;84.40
52963;DHT22;38827;53.024;6.596;2023-12-20T09:01:48;7.40;85.40
52963;DHT22;38827;53.024;6.596;2023-12-20T09:10:54;7.70;85.50
52963;DHT22;38827;53.024;6.596;2023-12-20T09:21:04;7.90;85.50
52963;DHT22;38827;53.024;6.596;2023-12-20T11:53:06;7.80;80.90
52963;DHT22;38827;53.024;6.596;2023-12-20T12:36:31;7.80;81.30
52963;DHT22;38827;53.024;6.596;2023-12-20T12:45:18;7.70;82.70
52963;DHT22;38827;53.024;6.596;2023-12-20T12:50:52;7.60;83.10
52963;DHT22;38827;53.024;6.596;2023-12-20T12:54:28;7.50;83.50
52963;DHT22;38827;53.024;6.596;2023-12-20T12:56:53;7.50;83.90
52963;DHT22;38827;53.024;6.596;2023-12-20T13:08:40;7.60;84.40
52963;DHT22;38827;53.024;6.596;2023-12-20T13:18:20;7.60;84.80
52963;DHT22;38827;53.024;6.596;2023-12-20T13:20:52;7.60;84.80
52963;DHT22;38827;53.024;6.596;2023-12-20T13:33:12;7.30;84.90
52963;DHT22;38827;53.024;6.596;2023-12-20T13:36:01;7.20;84.80
52963;DHT22;38827;53.024;6.596;2023-12-20T13:38:30;7.10;85.00
52963;DHT22;38827;53.024;6.596;2023-12-20T13:41:02;7.10;85.20
52963;DHT22;38827;53.024;6.596;2023-12-20T13:43:32;7.00;85.00
52963;DHT22;38827;53.024;6.596;2023-12-20T13:46:31;7.00;85.40
52963;DHT22;38827;53.024;6.596;2023-12-20T13:54:48;6.90;86.00
52963;DHT22;38827;53.024;6.596;2023-12-20T14:00:09;6.90;86.30
52963;DHT22;38827;53.024;6.596;2023-12-20T14:02:42;6.80;86.40
52963;DHT22;38827;53.024;6.596;2023-12-20T14:05:09;6.80;86.30
52963;DHT22;38827;53.024;6.596;2023-12-20T14:07:36;6.80;86.40
52963;DHT22;38827;53.024;6.596;2023-12-20T14:10:12;6.80;86.50
52963;DHT22;38827;53.024;6.596;2023-12-20T14:12:39;6.80;86.60
52963;DHT22;38827;53.024;6.596;2023-12-20T14:15:05;6.80;86.70
52963;DHT22;38827;53.024;6.596;2023-12-20T14:17:37;6.80;86.70
52963;DHT22;38827;53.024;6.596;2023-12-20T14:23:26;6.80;87.00
52963;DHT22;38827;53.024;6.596;2023-12-20T14:25:52;6.80;87.20
52963;DHT22;38827;53.024;6.596;2023-12-20T14:28:18;6.80;87.20
52963;DHT22;38827;53.024;6.596;2023-12-20T14:30:44;6.80;87.40
52963;DHT22;38827;53.024;6.596;2023-12-20T14:33:10;6.80;87.40
52963;DHT22;38827;53.024;6.596;2023-12-20T14:35:35;6.80;87.60
52963;DHT22;38827;53.024;6.596;2023-12-20T14:38:01;6.80;87.80
52963;DHT22;38827;53.024;6.596;2023-12-20T14:40:27;6.80;87.80
52963;DHT22;38827;53.024;6.596;2023-12-20T14:42:52;6.70;87.80
52963;DHT22;38827;53.024;6.596;2023-12-20T14:45:18;6.70;87.80
52963;DHT22;38827;53.024;6.596;2023-12-20T14:47:53;6.80;88.00
52963;DHT22;38827;53.024;6.596;2023-12-20T14:50:19;6.80;88.10
52963;DHT22;38827;53.024;6.596;2023-12-20T14:52:45;6.80;88.30
52963;DHT22;38827;53.024;6.596;2023-12-20T14:55:11;6.80;88.30
52963;DHT22;38827;53.024;6.596;2023-12-20T14:57:37;6.80;88.20
52963;DHT22;38827;53.024;6.596;2023-12-20T15:00:03;6.80;88.10
52963;DHT22;38827;53.024;6.596;2023-12-20T15:02:36;6.80;88.20
52963;DHT22;38827;53.024;6.596;2023-12-20T15:05:02;6.80;88.30
52963;DHT22;38827;53.024;6.596;2023-12-20T15:07:28;6.80;88.50
52963;DHT22;38827;53.024;6.596;2023-12-20T15:09:53;6.80;88.50
52963;DHT22;38827;53.024;6.596;2023-12-20T15:12:19;6.70;88.70
52963;DHT22;38827;53.024;6.596;2023-12-20T15:14:45;6.80;88.70
52963;DHT22;38827;53.024;6.596;2023-12-20T15:17:10;6.80;88.80
52963;DHT22;38827;53.024;6.596;2023-12-20T15:19:36;6.80;88.80
52963;DHT22;38827;53.024;6.596;2023-12-20T15:22:02;6.70;89.00
52963;DHT22;38827;53.024;6.596;2023-12-20T15:24:29;6.70;89.10
52963;DHT22;38827;53.024;6.596;2023-12-20T15:27:04;6.70;89.20
52963;DHT22;38827;53.024;6.596;2023-12-20T15:29:30;6.70;89.60
52963;DHT22;38827;53.024;6.596;2023-12-20T15:31:56;6.70;89.50
52963;DHT22;38827;53.024;6.596;2023-12-20T15:34:22;6.80;89.50
52963;DHT22;38827;53.024;6.596;2023-12-20T15:36:48;6.80;89.60
52963;DHT22;38827;53.024;6.596;2023-12-20T15:39:13;6.80;89.60
52963;DHT22;38827;53.024;6.596;2023-12-20T16:08:45;7.00;89.90
52963;DHT22;38827;53.024;6.596;2023-12-20T16:11:17;7.00;90.00
52963;DHT22;38827;53.024;6.596;2023-12-20T16:13:43;7.00;89.70
52963;DHT22;38827;53.024;6.596;2023-12-20T16:21:19;7.10;89.60
52963;DHT22;38827;53.024;6.596;2023-12-20T16:23:45;7.10;89.40
52963;DHT22;38827;53.024;6.596;2023-12-20T16:26:12;7.10;89.50
52963;DHT22;38827;53.024;6.596;2023-12-20T16:33:42;7.20;89.10
52963;DHT22;38827;53.024;6.596;2023-12-20T16:40:55;7.30;88.90
52963;DHT22;38827;53.024;6.596;2023-12-20T16:43:21;7.20;89.10
52963;DHT22;38827;53.024;6.596;2023-12-20T16:46:16;7.30;89.40
52963;DHT22;38827;53.024;6.596;2023-12-20T16:48:42;7.30;89.50
52963;DHT22;38827;53.024;6.596;2023-12-20T16:54:16;7.30;89.80
52963;DHT22;38827;53.024;6.596;2023-12-20T16:56:42;7.30;90.10
52963;DHT22;38827;53.024;6.596;2023-12-20T16:59:09;7.40;90.10
52963;DHT22;38827;53.024;6.596;2023-12-20T17:01:35;7.40;90.30
52963;DHT22;38827;53.024;6.596;2023-12-20T17:04:01;7.50;90.50
52963;DHT22;38827;53.024;6.596;2023-12-20T17:06:28;7.50;90.70
52963;DHT22;38827;53.024;6.596;2023-12-20T17:08:54;7.50;90.80
52963;DHT22;38827;53.024;6.596;2023-12-20T17:11:20;7.50;90.90
52963;DHT22;38827;53.024;6.596;2023-12-20T17:14:02;7.50;91.30
52963;DHT22;38827;53.024;6.596;2023-12-20T17:16:30;7.60;91.40
52963;DHT22;38827;53.024;6.596;2023-12-20T17:19:02;7.60;91.40
52963;DHT22;38827;53.024;6.596;2023-12-20T17:21:30;7.60;91.50
52963;DHT22;38827;53.024;6.596;2023-12-20T17:23:56;7.60;91.80
52963;DHT22;38827;53.024;6.596;2023-12-20T17:26:27;7.70;91.70
52963;DHT22;38827;53.024;6.596;2023-12-20T17:29:02;7.70;91.70
52963;DHT22;38827;53.024;6.596;2023-12-20T17:31:28;7.70;91.80
52963;DHT22;38827;53.024;6.596;2023-12-20T17:33:53;7.70;92.10
52963;DHT22;38827;53.024;6.596;2023-12-20T17:36:34;7.80;92.00
52963;DHT22;38827;53.024;6.596;2023-12-20T17:38:59;7.80;92.10
52963;DHT22;38827;53.024;6.596;2023-12-20T17:45:18;7.80;92.20
52963;DHT22;38827;53.024;6.596;2023-12-20T17:47:44;7.80;92.50
52963;DHT22;38827;53.024;6.596;2023-12-20T17:50:10;7.80;92.50
52963;DHT22;38827;53.024;6.596;2023-12-20T17:52:35;7.90;92.70
52963;DHT22;38827;53.024;6.596;2023-12-20T17:57:36;7.90;92.90
52963;DHT22;38827;53.024;6.596;2023-12-20T18:02:46;7.90;92.90
52963;DHT22;38827;53.024;6.596;2023-12-20T18:05:12;7.90;93.00
52963;DHT22;38827;53.024;6.596;2023-12-20T18:07:42;7.90;93.10
52963;DHT22;38827;53.024;6.596;2023-12-20T18:10:21;7.90;93.20
52963;DHT22;38827;53.024;6.596;2023-12-20T18:12:47;7.90;93.30
52963;DHT22;38827;53.024;6.596;2023-12-20T18:15:14;7.90;93.50
52963;DHT22;38827;53.024;6.596;2023-12-20T18:17:43;7.90;93.40
52963;DHT22;38827;53.024;6.596;2023-12-20T18:20:09;8.00;93.50
52963;DHT22;38827;53.024;6.596;2023-12-20T18:22:34;8.00;93.80
52963;DHT22;38827;53.024;6.596;2023-12-20T19:02:04;8.20;95.20
52963;DHT22;38827;53.024;6.596;2023-12-20T19:04:46;8.20;95.30
52963;DHT22;38827;53.024;6.596;2023-12-20T19:13:38;8.20;95.40
52963;DHT22;38827;53.024;6.596;2023-12-20T19:16:04;8.30;95.20
52963;DHT22;38827;53.024;6.596;2023-12-20T19:18:47;8.30;95.40
52963;DHT22;38827;53.024;6.596;2023-12-20T19:21:16;8.30;95.10
52963;DHT22;38827;53.024;6.596;2023-12-20T19:26:36;8.30;95.30
52963;DHT22;38827;53.024;6.596;2023-12-20T19:29:03;8.40;95.90
52963;DHT22;38827;53.024;6.596;2023-12-20T19:31:34;8.40;95.80
52963;DHT22;38827;53.024;6.596;2023-12-20T19:34:03;8.40;95.70
52963;DHT22;38827;53.024;6.596;2023-12-20T19:39:37;8.40;95.80
52963;DHT22;38827;53.024;6.596;2023-12-20T19:42:09;8.40;96.00
52963;DHT22;38827;53.024;6.596;2023-12-20T19:44:34;8.40;96.00
52963;DHT22;38827;53.024;6.596;2023-12-20T19:47:17;8.50;96.00
52963;DHT22;38827;53.024;6.596;2023-12-20T19:49:46;8.50;95.90
52963;DHT22;38827;53.024;6.596;2023-12-20T19:52:18;8.50;96.10
52963;DHT22;38827;53.024;6.596;2023-12-20T19:54:43;8.50;96.20
52963;DHT22;38827;53.024;6.596;2023-12-20T19:57:09;8.50;96.20
52963;DHT22;38827;53.024;6.596;2023-12-20T19:59:35;8.50;96.30
52963;DHT22;38827;53.024;6.596;2023-12-20T20:02:13;8.50;96.20
52963;DHT22;38827;53.024;6.596;2023-12-20T20:04:53;8.50;96.20
52963;DHT22;38827;53.024;6.596;2023-12-20T20:07:34;8.50;96.30
52963;DHT22;38827;53.024;6.596;2023-12-20T20:10:17;8.60;96.30
52963;DHT22;38827;53.024;6.596;2023-12-20T20:12:43;8.60;96.50
52963;DHT22;38827;53.024;6.596;2023-12-20T20:15:09;8.60;96.70
52963;DHT22;38827;53.024;6.596;2023-12-20T20:17:35;8.60;96.70
52963;DHT22;38827;53.024;6.596;2023-12-20T20:22:38;8.60;96.80
52963;DHT22;38827;53.024;6.596;2023-12-20T20:25:06;8.70;97.10
52963;DHT22;38827;53.024;6.596;2023-12-20T20:27:33;8.70;97.10
52963;DHT22;38827;53.024;6.596;2023-12-20T20:30:00;8.70;97.00
52963;DHT22;38827;53.024;6.596;2023-12-20T20:32:26;8.70;97.00
52963;DHT22;38827;53.024;6.596;2023-12-20T20:34:54;8.70;97.00
52963;DHT22;38827;53.024;6.596;2023-12-20T20:37:19;8.80;97.10
52963;DHT22;38827;53.024;6.596;2023-12-20T20:39:45;8.80;97.00
52963;DHT22;38827;53.024;6.596;2023-12-20T20:42:10;8.80;97.20
52963;DHT22;38827;53.024;6.596;2023-12-20T20:44:39;8.80;97.00
52963;DHT22;38827;53.024;6.596;2023-12-20T20:47:04;8.80;97.10
52963;DHT22;38827;53.024;6.596;2023-12-20T20:49:30;8.80;97.20
52963;DHT22;38827;53.024;6.596;2023-12-20T20:52:01;8.90;97.00
52963;DHT22;38827;53.024;6.596;2023-12-20T22:04:32;9.00;97.20
52963;DHT22;38827;53.024;6.596;2023-12-20T22:06:58;9.00;97.30
52963;DHT22;38827;53.024;6.596;2023-12-20T22:09:24;9.00;97.20
52963;DHT22;38827;53.024;6.596;2023-12-20T22:11:52;9.00;97.10
52963;DHT22;38827;53.024;6.596;2023-12-20T22:14:20;9.00;97.10
52963;DHT22;38827;53.024;6.596;2023-12-20T22:16:46;9.10;97.30
52963;DHT22;38827;53.024;6.596;2023-12-20T22:19:12;9.10;97.20
52963;DHT22;38827;53.024;6.596;2023-12-20T22:21:37;9.10;97.40
52963;DHT22;38827;53.024;6.596;2023-12-20T22:24:03;9.10;97.40
52963;DHT22;38827;53.024;6.596;2023-12-20T22:26:29;9.10;97.30
52963;DHT22;38827;53.024;6.596;2023-12-20T22:28:58;9.10;97.40
52963;DHT22;38827;53.024;6.596;2023-12-20T22:31:24;9.10;97.40
52963;DHT22;38827;53.024;6.596;2023-12-20T22:33:49;9.10;97.50
52963;DHT22;38827;53.024;6.596;2023-12-20T22:36:20;9.10;97.40
52963;DHT22;38827;53.024;6.596;2023-12-20T22:38:46;9.20;97.50
52963;DHT22;38827;53.024;6.596;2023-12-20T22:41:12;9.10;97.40
52963;DHT22;38827;53.024;6.596;2023-12-20T22:43:38;9.10;97.40
52963;DHT22;38827;53.024;6.596;2023-12-20T22:46:04;9.20;97.40
52963;DHT22;38827;53.024;6.596;2023-12-20T22:48:30;9.20;97.30
52963;DHT22;38827;53.024;6.596;2023-12-20T22:50:56;9.20;97.30
52963;DHT22;38827;53.024;6.596;2023-12-20T22:53:22;9.20;97.30
52963;DHT22;38827;53.024;6.596;2023-12-20T22:55:47;9.20;97.30
52963;DHT22;38827;53.024;6.596;2023-12-20T22:58:13;9.20;97.20
52963;DHT22;38827;53.024;6.596;2023-12-20T23:00:39;9.20;97.20
52963;DHT22;38827;53.024;6.596;2023-12-20T23:03:05;9.20;97.10
52963;DHT22;38827;53.024;6.596;2023-12-20T23:05:31;9.20;97.10
52963;DHT22;38827;53.024;6.596;2023-12-20T23:07:57;9.70;94.20
52963;DHT22;38827;53.024;6.596;2023-12-20T23:10:23;9.30;96.00
52963;DHT22;38827;53.024;6.596;2023-12-20T23:12:52;9.30;96.70
52963;DHT22;38827;53.024;6.596;2023-12-20T23:15:18;9.30;96.90
52963;DHT22;38827;53.024;6.596;2023-12-20T23:17:44;9.30;96.90
52963;DHT22;38827;53.024;6.596;2023-12-20T23:20:10;9.30;97.00
52963;DHT22;38827;53.024;6.596;2023-12-20T23:22:38;9.30;96.90
52963;DHT22;38827;53.024;6.596;2023-12-20T23:25:04;9.30;97.00
52963;DHT22;38827;53.024;6.596;2023-12-20T23:27:29;9.20;96.90
52963;DHT22;38827;53.024;6.596;2023-12-20T23:29:55;9.30;97.00
52963;DHT22;38827;53.024;6.596;2023-12-20T23:32:21;9.30;96.90
52963;DHT22;38827;53.024;6.596;2023-12-20T23:34:50;9.30;96.80
52963;DHT22;38827;53.024;6.596;2023-12-20T23:37:15;9.30;96.80
52963;DHT22;38827;53.024;6.596;2023-12-20T23:39:42;9.30;96.90
52963;DHT22;38827;53.024;6.596;2023-12-20T23:42:13;9.20;96.80
52963;DHT22;38827;53.024;6.596;2023-12-20T23:44:43;9.30;96.90
52963;DHT22;38827;53.024;6.596;2023-12-20T23:47:09;9.30;96.80
52963;DHT22;38827;53.024;6.596;2023-12-20T23:49:38;9.30;96.80
52963;DHT22;38827;53.024;6.596;2023-12-20T23:54:31;9.60;96.20
52963;DHT22;38827;53.024;6.596;2023-12-20T23:56:56;9.30;96.60
52963;DHT22;38827;53.024;6.596;2023-12-20T23:59:22;9.30;96.60
